createdAt,value
2023-04-24T00:00:10.951Z,86.30
2023-04-24T00:01:10.919Z,86.00
2023-04-24T00:02:11.042Z,86.10
2023-04-24T00:03:11.104Z,86.51
2023-04-24T00:04:11.122Z,86.10
2023-04-24T00:05:10.871Z,86.00
2023-04-24T00:06:10.878Z,86.00
2023-04-24T00:07:10.860Z,86.30
2023-04-24T00:08:10.836Z,85.80
2023-04-24T00:09:10.821Z,85.90
2023-04-24T00:10:10.830Z,85.90
2023-04-24T00:11:10.788Z,86.30
2023-04-24T00:12:10.813Z,86.21
2023-04-24T00:13:10.784Z,85.69
2023-04-24T00:14:10.771Z,85.28
2023-04-24T00:15:10.970Z,85.08
2023-04-24T00:16:10.778Z,85.08
2023-04-24T00:17:10.782Z,84.88
2023-04-24T00:18:10.726Z,84.58
2023-04-24T00:19:10.725Z,84.78
2023-04-24T00:20:10.720Z,84.78
2023-04-24T00:21:10.697Z,83.92
2023-04-24T00:22:10.762Z,84.03
2023-04-24T00:23:10.661Z,83.51
2023-04-24T00:24:10.670Z,83.42
2023-04-24T00:25:10.725Z,83.62
2023-04-24T00:26:10.796Z,83.62
2023-04-24T00:27:10.768Z,83.62
2023-04-24T00:28:10.635Z,83.51
2023-04-24T00:29:10.599Z,83.21
2023-04-24T00:30:10.601Z,83.42
2023-04-24T00:31:10.601Z,83.31
2023-04-24T00:32:10.683Z,83.42
2023-04-24T00:33:10.605Z,83.31
2023-04-24T00:34:10.544Z,83.31
2023-04-24T00:35:10.540Z,83.31
2023-04-24T00:36:10.525Z,83.31
2023-04-24T00:37:10.520Z,83.21
2023-04-24T00:38:10.514Z,83.31
2023-04-24T00:39:10.498Z,83.21
2023-04-24T00:40:10.494Z,83.21
2023-04-24T00:41:10.477Z,83.11
2023-04-24T00:42:10.481Z,83.31
2023-04-24T00:43:10.622Z,83.51
2023-04-24T00:44:10.460Z,83.21
2023-04-24T00:45:10.438Z,83.42
2023-04-24T00:46:10.471Z,83.01
2023-04-24T00:47:10.430Z,82.70
2023-04-24T00:48:10.425Z,82.70
2023-04-24T00:49:10.394Z,82.70
2023-04-24T00:50:10.411Z,83.01
2023-04-24T00:51:10.373Z,83.21
2023-04-24T00:52:10.383Z,83.21
2023-04-24T00:53:10.416Z,83.51
2023-04-24T00:54:10.351Z,83.21
2023-04-24T00:55:10.349Z,83.21
2023-04-24T00:56:10.328Z,83.21
2023-04-24T00:57:10.288Z,83.21
2023-04-24T00:58:10.301Z,83.21
2023-04-24T00:59:10.277Z,83.01
2023-04-24T01:00:10.302Z,83.01
2023-04-24T01:01:10.289Z,83.11
2023-04-24T01:02:10.277Z,82.90
2023-04-24T01:03:10.323Z,83.01
2023-04-24T01:04:10.420Z,83.01
2023-04-24T01:05:10.220Z,83.01
2023-04-24T01:06:10.227Z,83.01
2023-04-24T01:07:10.204Z,82.90
2023-04-24T01:08:10.183Z,83.01
2023-04-24T01:09:10.178Z,83.11
2023-04-24T01:10:10.464Z,83.11
2023-04-24T01:11:10.182Z,82.80
2023-04-24T01:12:10.179Z,82.60
2023-04-24T01:13:10.161Z,82.70
2023-04-24T01:14:10.144Z,82.80
2023-04-24T01:15:10.145Z,83.11
2023-04-24T01:16:10.195Z,82.70
2023-04-24T01:17:10.154Z,82.60
2023-04-24T01:18:10.106Z,82.50
2023-04-24T01:19:10.112Z,82.50
2023-04-24T01:20:10.104Z,82.40
2023-04-24T01:21:10.108Z,82.40
2023-04-24T01:22:10.053Z,82.60
2023-04-24T01:23:10.053Z,82.70
2023-04-24T01:24:10.046Z,82.90
2023-04-24T01:25:10.318Z,82.90
2023-04-24T01:26:10.004Z,82.80
2023-04-24T01:27:10.033Z,82.90
2023-04-24T01:28:09.988Z,83.21
2023-04-24T01:29:09.985Z,83.21
2023-04-24T01:30:09.999Z,83.11
2023-04-24T01:31:09.994Z,82.90
2023-04-24T01:32:09.948Z,82.60
2023-04-24T01:33:09.947Z,82.70
2023-04-24T01:34:09.946Z,82.50
2023-04-24T01:35:09.939Z,82.70
2023-04-24T01:36:09.911Z,82.50
2023-04-24T01:37:09.900Z,82.70
2023-04-24T01:38:09.892Z,82.60
2023-04-24T01:39:09.876Z,83.01
2023-04-24T01:40:09.875Z,82.90
2023-04-24T01:41:09.868Z,83.21
2023-04-24T01:42:09.857Z,82.90
2023-04-24T01:43:09.838Z,83.11
2023-04-24T01:44:09.816Z,82.90
2023-04-24T01:45:09.907Z,83.11
2023-04-24T01:46:09.859Z,82.90
2023-04-24T01:47:09.799Z,83.01
2023-04-24T01:48:09.786Z,83.01
2023-04-24T01:49:09.765Z,83.01
2023-04-24T01:50:09.768Z,83.01
2023-04-24T01:51:09.751Z,83.11
2023-04-24T01:52:09.743Z,83.31
2023-04-24T01:53:09.734Z,83.21
2023-04-24T01:54:09.717Z,83.42
2023-04-24T01:55:09.733Z,83.42
2023-04-24T01:56:09.702Z,83.31
2023-04-24T01:57:09.693Z,83.51
2023-04-24T01:58:09.670Z,83.51
2023-04-24T01:59:09.670Z,83.42
2023-04-24T02:00:09.663Z,83.62
2023-04-24T02:01:09.664Z,83.51
2023-04-24T02:02:09.755Z,83.51
2023-04-24T02:03:09.710Z,83.82
2023-04-24T02:04:09.712Z,83.72
2023-04-24T02:05:09.612Z,83.82
2023-04-24T02:06:09.593Z,83.96
2023-04-24T02:07:09.569Z,84.06
2023-04-24T02:08:09.573Z,83.96
2023-04-24T02:09:09.554Z,84.17
2023-04-24T02:10:09.544Z,84.17
2023-04-24T02:11:09.532Z,84.17
2023-04-24T02:12:09.548Z,84.27
2023-04-24T02:13:09.527Z,84.27
2023-04-24T02:14:09.505Z,84.47
2023-04-24T02:15:09.504Z,84.37
2023-04-24T02:16:10.302Z,84.27
2023-04-24T02:17:09.469Z,84.37
2023-04-24T02:18:09.462Z,84.37
2023-04-24T02:19:09.477Z,84.58
2023-04-24T02:20:09.966Z,84.47
2023-04-24T02:21:09.540Z,84.37
2023-04-24T02:22:09.421Z,84.37
2023-04-24T02:23:09.410Z,84.47
2023-04-24T02:24:09.401Z,84.47
2023-04-24T02:25:09.411Z,84.58
2023-04-24T02:26:09.373Z,84.58
2023-04-24T02:27:09.363Z,84.47
2023-04-24T02:28:09.353Z,84.67
2023-04-24T02:29:09.337Z,84.67
2023-04-24T02:30:09.334Z,84.78
2023-04-24T02:31:09.336Z,84.78
2023-04-24T02:32:09.359Z,84.88
2023-04-24T02:33:09.295Z,84.67
2023-04-24T02:34:09.324Z,84.78
2023-04-24T02:35:09.296Z,84.98
2023-04-24T02:36:09.266Z,84.78
2023-04-24T02:37:09.255Z,84.88
2023-04-24T02:38:09.248Z,84.67
2023-04-24T02:39:09.279Z,84.78
2023-04-24T02:40:09.232Z,84.67
2023-04-24T02:41:09.229Z,84.67
2023-04-24T02:42:09.252Z,84.67
2023-04-24T02:43:09.207Z,84.67
2023-04-24T02:44:09.191Z,84.98
2023-04-24T02:45:09.185Z,85.86
2023-04-24T02:46:09.207Z,87.18
2023-04-24T02:47:09.147Z,87.53
2023-04-24T02:48:09.131Z,87.94
2023-04-24T02:49:09.111Z,87.53
2023-04-24T02:50:09.208Z,87.94
2023-04-24T02:51:09.098Z,87.94
2023-04-24T02:52:09.097Z,87.84
2023-04-24T02:53:09.066Z,88.24
2023-04-24T02:54:09.069Z,88.55
2023-04-24T02:55:09.082Z,89.16
2023-04-24T02:56:09.070Z,90.53
2023-04-24T02:57:09.037Z,90.94
2023-04-24T02:58:09.052Z,91.24
2023-04-24T02:59:09.034Z,90.53
2023-04-24T03:00:09.012Z,91.24
2023-04-24T03:01:09.011Z,91.24
2023-04-24T03:02:09.033Z,91.55
2023-04-24T03:03:11.397Z,91.55
2023-04-24T03:04:09.191Z,91.65
2023-04-24T03:05:09.054Z,91.75
2023-04-24T03:06:09.017Z,91.79
2023-04-24T03:07:08.943Z,91.79
2023-04-24T03:08:08.926Z,91.79
2023-04-24T03:09:08.925Z,91.69
2023-04-24T03:10:08.955Z,91.69
2023-04-24T03:11:08.889Z,91.49
2023-04-24T03:12:08.868Z,91.28
2023-04-24T03:13:08.862Z,91.08
2023-04-24T03:14:08.884Z,91.49
2023-04-24T03:15:08.834Z,91.49
2023-04-24T03:16:08.877Z,91.59
2023-04-24T03:17:08.825Z,91.49
2023-04-24T03:18:08.863Z,91.59
2023-04-24T03:19:08.798Z,91.79
2023-04-24T03:20:08.789Z,91.59
2023-04-24T03:21:08.807Z,91.49
2023-04-24T03:22:08.777Z,91.79
2023-04-24T03:23:08.772Z,91.79
2023-04-24T03:24:08.753Z,91.69
2023-04-24T03:25:08.731Z,91.69
2023-04-24T03:26:08.739Z,91.39
2023-04-24T03:27:08.709Z,91.49
2023-04-24T03:28:08.711Z,91.59
2023-04-24T03:29:08.709Z,91.39
2023-04-24T03:30:08.704Z,91.18
2023-04-24T03:31:08.734Z,91.18
2023-04-24T03:32:08.670Z,91.28
2023-04-24T03:33:08.677Z,91.18
2023-04-24T03:34:08.638Z,90.98
2023-04-24T03:35:08.911Z,91.33
2023-04-24T03:36:08.642Z,91.18
2023-04-24T03:37:08.600Z,91.08
2023-04-24T03:38:08.598Z,91.33
2023-04-24T03:39:08.599Z,91.28
2023-04-24T03:40:08.611Z,91.33
2023-04-24T03:41:08.584Z,91.08
2023-04-24T03:42:08.560Z,91.22
2023-04-24T03:43:08.547Z,91.22
2023-04-24T03:44:08.541Z,91.22
2023-04-24T03:45:08.546Z,91.22
2023-04-24T03:46:08.536Z,91.43
2023-04-24T03:47:08.511Z,91.33
2023-04-24T03:48:08.513Z,90.92
2023-04-24T03:49:08.492Z,91.02
2023-04-24T03:50:08.565Z,91.12
2023-04-24T03:51:08.761Z,91.22
2023-04-24T03:52:08.457Z,91.33
2023-04-24T03:53:08.441Z,91.22
2023-04-24T03:54:08.421Z,91.22
2023-04-24T03:55:08.450Z,91.33
2023-04-24T03:56:08.405Z,91.33
2023-04-24T03:57:08.397Z,91.33
2023-04-24T03:58:08.399Z,91.33
2023-04-24T03:59:08.679Z,91.53
2023-04-24T04:00:13.493Z,91.43
2023-04-24T04:01:08.533Z,91.43
2023-04-24T04:02:08.654Z,91.53
2023-04-24T04:03:08.631Z,91.53
2023-04-24T04:04:08.445Z,91.74
2023-04-24T04:05:08.385Z,91.57
2023-04-24T04:06:08.333Z,91.67
2023-04-24T04:07:08.315Z,91.88
2023-04-24T04:08:08.319Z,91.88
2023-04-24T04:09:08.267Z,91.88
2023-04-24T04:10:08.277Z,91.74
2023-04-24T04:11:08.263Z,91.83
2023-04-24T04:12:08.244Z,91.74
2023-04-24T04:13:08.231Z,91.83
2023-04-24T04:14:08.222Z,91.83
2023-04-24T04:15:08.232Z,91.63
2023-04-24T04:16:08.265Z,91.74
2023-04-24T04:17:08.173Z,91.74
2023-04-24T04:18:08.220Z,91.74
2023-04-24T04:19:08.169Z,91.74
2023-04-24T04:20:08.163Z,91.63
2023-04-24T04:21:08.163Z,91.53
2023-04-24T04:22:08.135Z,91.53
2023-04-24T04:23:08.141Z,91.43
2023-04-24T04:24:08.110Z,91.43
2023-04-24T04:25:08.084Z,91.74
2023-04-24T04:26:08.086Z,91.63
2023-04-24T04:27:08.204Z,91.63
2023-04-24T04:28:08.485Z,93.37
2023-04-24T04:29:08.052Z,94.18
2023-04-24T04:30:08.036Z,94.38
2023-04-24T04:31:08.038Z,95.00
2023-04-24T04:32:09.212Z,95.25
2023-04-24T04:33:08.076Z,95.04
2023-04-24T04:34:07.996Z,94.53
2023-04-24T04:35:07.996Z,94.23
2023-04-24T04:36:07.992Z,94.84
2023-04-24T04:37:08.013Z,94.84
2023-04-24T04:38:07.974Z,93.96
2023-04-24T04:39:07.954Z,94.27
2023-04-24T04:40:08.012Z,94.37
2023-04-24T04:41:07.935Z,93.45
2023-04-24T04:42:07.987Z,93.35
2023-04-24T04:43:07.903Z,93.25
2023-04-24T04:44:08.596Z,92.43
2023-04-24T04:45:07.889Z,93.15
2023-04-24T04:46:07.903Z,93.15
2023-04-24T04:47:07.858Z,92.33
2023-04-24T04:48:07.865Z,92.23
2023-04-24T04:49:07.838Z,92.84
2023-04-24T04:50:07.827Z,92.33
2023-04-24T04:51:07.819Z,91.92
2023-04-24T04:52:07.816Z,90.59
2023-04-24T04:53:07.805Z,90.08
2023-04-24T04:54:07.797Z,89.26
2023-04-24T04:55:07.794Z,89.17
2023-04-24T04:56:07.777Z,89.37
2023-04-24T04:57:07.777Z,89.17
2023-04-24T04:58:07.757Z,88.45
2023-04-24T04:59:08.473Z,87.94
2023-04-24T05:00:07.760Z,87.84
2023-04-24T05:01:07.766Z,88.45
2023-04-24T05:02:07.805Z,88.85
2023-04-24T05:03:20.678Z,87.84
2023-04-24T05:04:08.846Z,88.14
2023-04-24T05:05:07.746Z,87.73
2023-04-24T05:06:07.686Z,87.23
2023-04-24T05:07:07.687Z,86.91
2023-04-24T05:08:11.093Z,87.43
2023-04-24T05:09:08.641Z,87.63
2023-04-24T05:10:07.631Z,87.84
2023-04-24T05:11:07.624Z,88.24
2023-04-24T05:12:07.611Z,88.24
2023-04-24T05:13:07.662Z,88.55
2023-04-24T05:14:07.591Z,87.94
2023-04-24T05:15:07.584Z,87.73
2023-04-24T05:16:07.686Z,88.24
2023-04-24T05:17:07.584Z,87.73
2023-04-24T05:18:07.617Z,87.94
2023-04-24T05:19:07.803Z,88.14
2023-04-24T05:20:07.524Z,87.43
2023-04-24T05:21:07.507Z,87.94
2023-04-24T05:22:07.513Z,87.43
2023-04-24T05:23:07.491Z,87.63
2023-04-24T05:24:07.820Z,87.06
2023-04-24T05:25:07.477Z,87.16
2023-04-24T05:26:08.053Z,87.16
2023-04-24T05:27:10.315Z,87.26
2023-04-24T05:28:08.180Z,87.16
2023-04-24T05:29:07.441Z,87.47
2023-04-24T05:30:07.432Z,87.57
2023-04-24T05:31:07.440Z,87.77
2023-04-24T05:32:07.408Z,87.94
2023-04-24T05:33:07.471Z,88.14
2023-04-24T05:34:09.706Z,88.45
2023-04-24T05:35:07.345Z,88.14
2023-04-24T05:36:07.355Z,87.94
2023-04-24T05:37:07.669Z,87.84
2023-04-24T05:38:10.087Z,87.63
2023-04-24T05:39:08.417Z,87.32
2023-04-24T05:40:07.309Z,87.63
2023-04-24T05:41:07.312Z,87.63
2023-04-24T05:42:07.365Z,87.43
2023-04-24T05:43:07.278Z,87.12
2023-04-24T05:44:08.048Z,87.02
2023-04-24T05:45:07.245Z,87.06
2023-04-24T05:46:07.289Z,87.26
2023-04-24T05:47:07.228Z,87.37
2023-04-24T05:48:07.264Z,87.77
2023-04-24T05:49:07.212Z,87.57
2023-04-24T05:50:07.187Z,87.57
2023-04-24T05:51:07.182Z,87.98
2023-04-24T05:52:07.172Z,87.37
2023-04-24T05:53:07.171Z,87.77
2023-04-24T05:54:07.163Z,87.67
2023-04-24T05:55:07.134Z,87.77
2023-04-24T05:56:07.413Z,87.67
2023-04-24T05:57:07.215Z,87.73
2023-04-24T05:58:07.133Z,87.43
2023-04-24T05:59:07.407Z,87.43
2023-04-24T06:00:07.255Z,87.53
2023-04-24T06:01:07.084Z,87.43
2023-04-24T06:02:07.237Z,87.32
2023-04-24T06:03:07.376Z,87.02
2023-04-24T06:04:07.407Z,86.82
2023-04-24T06:05:07.187Z,86.91
2023-04-24T06:06:07.033Z,87.02
2023-04-24T06:07:07.030Z,87.12
2023-04-24T06:08:07.030Z,86.82
2023-04-24T06:09:09.666Z,86.71
2023-04-24T06:10:06.999Z,86.85
2023-04-24T06:11:06.978Z,87.12
2023-04-24T06:12:06.964Z,86.85
2023-04-24T06:13:07.666Z,86.96
2023-04-24T06:14:06.973Z,86.65
2023-04-24T06:15:07.341Z,86.96
2023-04-24T06:16:06.979Z,87.37
2023-04-24T06:17:07.602Z,87.98
2023-04-24T06:18:06.976Z,88.49
2023-04-24T06:19:07.602Z,87.88
2023-04-24T06:20:07.745Z,88.04
2023-04-24T06:21:06.935Z,87.94
2023-04-24T06:22:09.699Z,88.35
2023-04-24T06:23:07.008Z,88.45
2023-04-24T06:24:06.863Z,88.04
2023-04-24T06:25:07.480Z,88.35
2023-04-24T06:26:06.842Z,87.23
2023-04-24T06:27:07.925Z,87.43
2023-04-24T06:28:07.084Z,88.14
2023-04-24T06:29:06.922Z,88.04
2023-04-24T06:30:06.783Z,87.70
2023-04-24T06:31:06.753Z,86.88
2023-04-24T06:32:06.778Z,86.47
2023-04-24T06:33:20.169Z,86.16
2023-04-24T06:34:07.728Z,85.35
2023-04-24T06:35:06.735Z,85.00
2023-04-24T06:36:06.756Z,82.75
2023-04-24T06:37:06.692Z,82.35
2023-04-24T06:38:06.669Z,82.86
2023-04-24T06:39:06.677Z,82.35
2023-04-24T06:40:08.393Z,81.70
2023-04-24T06:41:06.691Z,80.98
2023-04-24T06:42:06.628Z,80.98
2023-04-24T06:43:07.402Z,81.09
2023-04-24T06:44:06.602Z,81.18
2023-04-24T06:45:06.634Z,80.68
2023-04-24T06:46:06.648Z,80.27
2023-04-24T06:47:06.593Z,80.37
2023-04-24T06:48:09.127Z,79.35
2023-04-24T06:49:06.582Z,79.55
2023-04-24T06:50:06.565Z,79.00
2023-04-24T06:51:06.672Z,79.55
2023-04-24T06:52:06.540Z,79.75
2023-04-24T06:53:06.519Z,79.11
2023-04-24T06:54:06.516Z,79.21
2023-04-24T06:55:06.525Z,78.70
2023-04-24T06:56:06.489Z,78.09
2023-04-24T06:57:06.482Z,78.09
2023-04-24T06:58:06.476Z,78.05
2023-04-24T06:59:06.460Z,77.55
2023-04-24T07:00:06.456Z,77.44
2023-04-24T07:01:06.507Z,78.05
2023-04-24T07:02:06.590Z,77.34
2023-04-24T07:03:06.588Z,77.85
2023-04-24T07:04:06.669Z,77.85
2023-04-24T07:05:06.490Z,77.71
2023-04-24T07:06:06.385Z,77.10
2023-04-24T07:07:06.402Z,77.51
2023-04-24T07:08:06.370Z,77.51
2023-04-24T07:09:06.391Z,77.00
2023-04-24T07:10:06.343Z,76.79
2023-04-24T07:11:06.350Z,76.79
2023-04-24T07:12:06.342Z,76.79
2023-04-24T07:13:06.320Z,76.28
2023-04-24T07:14:06.309Z,76.28
2023-04-24T07:15:06.300Z,75.57
2023-04-24T07:16:06.334Z,75.16
2023-04-24T07:17:06.264Z,75.78
2023-04-24T07:18:06.356Z,76.28
2023-04-24T07:19:06.237Z,76.18
2023-04-24T07:20:06.246Z,76.18
2023-04-24T07:21:06.228Z,76.18
2023-04-24T07:22:08.775Z,76.69
2023-04-24T07:23:06.218Z,76.39
2023-04-24T07:24:06.347Z,76.28
2023-04-24T07:25:06.193Z,76.59
2023-04-24T07:26:08.391Z,75.16
2023-04-24T07:27:06.668Z,74.25
2023-04-24T07:28:06.160Z,74.35
2023-04-24T07:29:06.152Z,73.64
2023-04-24T07:30:06.122Z,73.43
2023-04-24T07:31:06.148Z,71.77
2023-04-24T07:32:06.260Z,72.48
2023-04-24T07:33:06.139Z,72.08
2023-04-24T07:34:06.090Z,72.17
2023-04-24T07:35:06.069Z,71.67
2023-04-24T07:36:06.338Z,71.77
2023-04-24T07:37:07.026Z,71.73
2023-04-24T07:38:07.449Z,71.43
2023-04-24T07:39:06.027Z,71.53
2023-04-24T07:40:06.375Z,71.73
2023-04-24T07:41:06.009Z,70.51
2023-04-24T07:42:06.008Z,70.28
2023-04-24T07:43:05.986Z,70.58
2023-04-24T07:44:06.699Z,70.38
2023-04-24T07:45:05.995Z,70.68
2023-04-24T07:46:08.978Z,70.28
2023-04-24T07:47:05.961Z,69.13
2023-04-24T07:48:06.106Z,69.33
2023-04-24T07:49:13.196Z,70.04
2023-04-24T07:50:06.995Z,68.62
2023-04-24T07:51:06.304Z,68.21
2023-04-24T07:52:06.896Z,68.01
2023-04-24T07:53:05.896Z,65.47
2023-04-24T07:54:06.314Z,65.80
2023-04-24T07:55:05.915Z,66.31
2023-04-24T07:56:06.418Z,66.52
2023-04-24T07:57:05.856Z,65.80
2023-04-24T07:58:06.547Z,66.00
2023-04-24T07:59:06.816Z,66.61
2023-04-24T08:00:05.821Z,66.11
2023-04-24T08:01:05.805Z,66.72
2023-04-24T08:02:06.080Z,65.60
2023-04-24T08:03:05.895Z,65.39
2023-04-24T08:04:08.301Z,64.99
2023-04-24T08:05:05.898Z,65.39
2023-04-24T08:06:05.844Z,65.70
2023-04-24T08:07:05.757Z,65.57
2023-04-24T08:08:05.726Z,65.97
2023-04-24T08:09:05.755Z,65.57
2023-04-24T08:10:05.728Z,64.79
2023-04-24T08:11:05.711Z,64.99
2023-04-24T08:12:06.473Z,64.79
2023-04-24T08:13:05.669Z,64.89
2023-04-24T08:14:05.659Z,65.16
2023-04-24T08:15:05.695Z,65.88
2023-04-24T08:16:05.688Z,65.16
2023-04-24T08:17:05.655Z,64.65
2023-04-24T08:18:05.674Z,65.16
2023-04-24T08:19:05.610Z,65.26
2023-04-24T08:20:05.598Z,64.96
2023-04-24T08:21:05.594Z,65.57
2023-04-24T08:22:05.563Z,65.47
2023-04-24T08:23:05.604Z,66.49
2023-04-24T08:24:05.581Z,67.40
2023-04-24T08:25:05.546Z,67.50
2023-04-24T08:26:05.532Z,67.60
2023-04-24T08:27:05.537Z,68.11
2023-04-24T08:28:05.822Z,68.21
2023-04-24T08:29:06.467Z,68.32
2023-04-24T08:30:05.492Z,68.52
2023-04-24T08:31:05.484Z,68.32
2023-04-24T08:32:06.359Z,67.50
2023-04-24T08:33:05.543Z,67.30
2023-04-24T08:34:05.444Z,67.71
2023-04-24T08:35:05.448Z,66.49
2023-04-24T08:36:05.449Z,67.02
2023-04-24T08:37:05.413Z,66.92
2023-04-24T08:38:05.403Z,66.41
2023-04-24T08:39:05.396Z,66.61
2023-04-24T08:40:05.377Z,66.28
2023-04-24T08:41:05.366Z,65.50
2023-04-24T08:42:05.350Z,65.39
2023-04-24T08:43:05.385Z,65.80
2023-04-24T08:44:05.346Z,65.80
2023-04-24T08:45:05.342Z,66.00
2023-04-24T08:46:09.112Z,66.11
2023-04-24T08:47:06.312Z,65.80
2023-04-24T08:48:06.896Z,65.22
2023-04-24T08:49:05.308Z,65.63
2023-04-24T08:50:05.272Z,66.24
2023-04-24T08:51:05.265Z,65.94
2023-04-24T08:52:05.254Z,65.73
2023-04-24T08:53:07.753Z,66.14
2023-04-24T08:54:06.784Z,65.60
2023-04-24T08:55:05.241Z,66.00
2023-04-24T08:56:05.196Z,65.30
2023-04-24T08:57:05.210Z,65.70
2023-04-24T08:58:05.580Z,65.19
2023-04-24T08:59:05.215Z,65.30
2023-04-24T09:00:05.163Z,65.73
2023-04-24T09:01:05.187Z,65.91
2023-04-24T09:02:05.235Z,65.39
2023-04-24T09:03:06.388Z,65.19
2023-04-24T09:04:05.378Z,65.19
2023-04-24T09:05:05.134Z,65.19
2023-04-24T09:06:05.143Z,64.48
2023-04-24T09:07:05.103Z,64.69
2023-04-24T09:08:05.086Z,64.99
2023-04-24T09:09:05.076Z,64.25
2023-04-24T09:10:05.159Z,64.58
2023-04-24T09:11:05.053Z,64.04
2023-04-24T09:12:05.052Z,63.43
2023-04-24T09:13:05.037Z,63.94
2023-04-24T09:14:05.084Z,64.79
2023-04-24T09:15:05.009Z,64.48
2023-04-24T09:16:05.022Z,64.07
2023-04-24T09:17:06.093Z,64.28
2023-04-24T09:18:05.085Z,64.07
2023-04-24T09:19:05.257Z,64.41
2023-04-24T09:20:04.959Z,64.44
2023-04-24T09:21:04.939Z,64.75
2023-04-24T09:22:04.943Z,65.16
2023-04-24T09:23:05.216Z,66.50
2023-04-24T09:24:04.914Z,68.65
2023-04-24T09:25:04.920Z,70.92
2023-04-24T09:26:04.892Z,74.93
2023-04-24T09:27:04.951Z,74.62
2023-04-24T09:28:05.680Z,75.64
2023-04-24T09:29:04.862Z,74.25
2023-04-24T09:30:04.846Z,73.84
2023-04-24T09:31:04.832Z,71.70
2023-04-24T09:32:04.939Z,71.39
2023-04-24T09:33:04.839Z,71.19
2023-04-24T09:34:07.235Z,70.27
2023-04-24T09:35:06.576Z,70.78
2023-04-24T09:36:04.782Z,69.53
2023-04-24T09:37:04.786Z,69.12
2023-04-24T09:38:04.764Z,69.12
2023-04-24T09:39:05.046Z,69.32
2023-04-24T09:40:04.733Z,68.37
2023-04-24T09:41:04.726Z,68.07
2023-04-24T09:42:04.772Z,68.07
2023-04-24T09:43:05.009Z,67.35
2023-04-24T09:44:04.701Z,67.15
2023-04-24T09:45:14.245Z,67.55
2023-04-24T09:46:05.711Z,67.43
2023-04-24T09:47:04.667Z,67.52
2023-04-24T09:48:04.730Z,66.58
2023-04-24T09:49:04.673Z,66.07
2023-04-24T09:50:04.641Z,66.38
2023-04-24T09:51:04.647Z,66.07
2023-04-24T09:52:04.688Z,66.14
2023-04-24T09:53:04.610Z,65.63
2023-04-24T09:54:04.612Z,65.83
2023-04-24T09:55:04.854Z,65.43
2023-04-24T09:56:04.599Z,65.43
2023-04-24T09:57:06.368Z,65.02
2023-04-24T09:58:04.557Z,64.64
2023-04-24T09:59:04.541Z,64.03
2023-04-24T10:00:04.519Z,63.62
2023-04-24T10:01:04.840Z,64.84
2023-04-24T10:02:04.613Z,64.72
2023-04-24T10:03:04.644Z,65.22
2023-04-24T10:04:04.535Z,63.77
2023-04-24T10:05:06.292Z,63.46
2023-04-24T10:06:04.457Z,63.77
2023-04-24T10:07:04.462Z,63.23
2023-04-24T10:08:04.522Z,62.32
2023-04-24T10:09:04.455Z,62.85
2023-04-24T10:10:04.430Z,63.26
2023-04-24T10:11:04.422Z,63.77
2023-04-24T10:12:04.403Z,63.26
2023-04-24T10:13:04.393Z,63.57
2023-04-24T10:14:04.368Z,64.07
2023-04-24T10:15:04.371Z,64.28
2023-04-24T10:16:06.302Z,62.96
2023-04-24T10:17:04.351Z,62.93
2023-04-24T10:18:06.463Z,61.51
2023-04-24T10:19:04.330Z,60.28
2023-04-24T10:20:04.315Z,59.88
2023-04-24T10:21:04.364Z,60.25
2023-04-24T10:22:04.906Z,59.95
2023-04-24T10:23:04.313Z,59.44
2023-04-24T10:24:04.266Z,59.21
2023-04-24T10:25:04.261Z,58.60
2023-04-24T10:26:04.289Z,58.91
2023-04-24T10:27:04.232Z,58.80
2023-04-24T10:28:04.213Z,58.88
2023-04-24T10:29:04.240Z,58.29
2023-04-24T10:30:04.249Z,58.50
2023-04-24T10:31:04.547Z,57.89
2023-04-24T10:32:04.175Z,57.59
2023-04-24T10:33:04.252Z,58.02
2023-04-24T10:34:04.176Z,58.63
2023-04-24T10:35:04.198Z,59.24
2023-04-24T10:36:04.196Z,59.34
2023-04-24T10:37:04.181Z,59.84
2023-04-24T10:38:04.125Z,59.57
2023-04-24T10:39:04.127Z,59.67
2023-04-24T10:40:04.089Z,59.47
2023-04-24T10:41:04.126Z,58.96
2023-04-24T10:42:04.063Z,58.78
2023-04-24T10:43:04.339Z,58.89
2023-04-24T10:44:04.043Z,59.09
2023-04-24T10:45:04.045Z,58.48
2023-04-24T10:46:04.094Z,58.58
2023-04-24T10:47:04.075Z,59.09
2023-04-24T10:48:05.989Z,59.39
2023-04-24T10:49:04.010Z,59.37
2023-04-24T10:50:03.994Z,59.47
2023-04-24T10:51:03.997Z,59.47
2023-04-24T10:52:03.992Z,59.57
2023-04-24T10:53:03.976Z,59.88
2023-04-24T10:54:03.974Z,59.67
2023-04-24T10:55:03.937Z,59.77
2023-04-24T10:56:06.060Z,59.57
2023-04-24T10:57:03.919Z,59.54
2023-04-24T10:58:03.926Z,59.54
2023-04-24T10:59:03.892Z,59.54
2023-04-24T11:00:06.090Z,59.34
2023-04-24T11:01:03.922Z,58.63
2023-04-24T11:02:03.872Z,58.76
2023-04-24T11:03:03.959Z,58.56
2023-04-24T11:04:04.105Z,58.76
2023-04-24T11:05:03.820Z,59.16
2023-04-24T11:06:03.819Z,59.57
2023-04-24T11:07:04.577Z,59.37
2023-04-24T11:08:05.237Z,59.88
2023-04-24T11:09:03.782Z,59.88
2023-04-24T11:10:03.788Z,59.88
2023-04-24T11:11:03.762Z,60.28
2023-04-24T11:12:03.755Z,60.28
2023-04-24T11:13:04.537Z,60.08
2023-04-24T11:14:03.740Z,60.18
2023-04-24T11:15:04.148Z,60.38
2023-04-24T11:16:03.720Z,60.49
2023-04-24T11:17:03.905Z,60.66
2023-04-24T11:18:04.024Z,59.82
2023-04-24T11:19:03.687Z,59.31
2023-04-24T11:20:15.390Z,59.41
2023-04-24T11:21:04.649Z,59.18
2023-04-24T11:22:03.648Z,59.39
2023-04-24T11:23:03.638Z,59.39
2023-04-24T11:24:03.617Z,58.88
2023-04-24T11:25:03.609Z,58.85
2023-04-24T11:26:03.600Z,58.42
2023-04-24T11:27:03.583Z,58.22
2023-04-24T11:28:03.872Z,57.81
2023-04-24T11:29:03.560Z,57.88
2023-04-24T11:30:03.785Z,57.28
2023-04-24T11:31:04.048Z,57.15
2023-04-24T11:32:03.614Z,56.41
2023-04-24T11:33:05.278Z,56.01
2023-04-24T11:34:03.514Z,55.30
2023-04-24T11:35:03.500Z,55.70
2023-04-24T11:36:03.503Z,55.30
2023-04-24T11:37:03.786Z,56.21
2023-04-24T11:38:19.274Z,55.60
2023-04-24T11:39:04.467Z,55.80
2023-04-24T11:40:03.825Z,56.21
2023-04-24T11:41:03.433Z,56.10
2023-04-24T11:42:03.437Z,56.21
2023-04-24T11:43:03.440Z,56.61
2023-04-24T11:44:03.407Z,56.54
2023-04-24T11:45:03.679Z,57.28
2023-04-24T11:46:04.478Z,57.50
2023-04-24T11:47:03.374Z,58.31
2023-04-24T11:48:03.671Z,58.34
2023-04-24T11:49:03.355Z,58.95
2023-04-24T11:50:03.396Z,59.39
2023-04-24T11:51:03.339Z,59.69
2023-04-24T11:52:03.338Z,59.99
2023-04-24T11:53:03.375Z,59.86
2023-04-24T11:54:04.496Z,60.07
2023-04-24T11:55:03.285Z,60.17
2023-04-24T11:56:03.286Z,59.77
2023-04-24T11:57:03.274Z,59.63
2023-04-24T11:58:03.268Z,59.00
2023-04-24T11:59:03.283Z,58.80
2023-04-24T12:00:04.322Z,58.90
2023-04-24T12:01:03.216Z,58.09
2023-04-24T12:02:03.254Z,58.39
2023-04-24T12:03:03.339Z,58.18
2023-04-24T12:04:05.934Z,57.68
2023-04-24T12:05:03.544Z,57.37
2023-04-24T12:06:03.931Z,57.81
2023-04-24T12:07:03.178Z,57.50
2023-04-24T12:08:04.034Z,56.79
2023-04-24T12:09:11.414Z,56.79
2023-04-24T12:10:04.456Z,56.90
2023-04-24T12:11:03.143Z,56.99
2023-04-24T12:12:03.168Z,57.23
2023-04-24T12:13:03.227Z,58.34
2023-04-24T12:14:03.159Z,59.08
2023-04-24T12:15:03.289Z,59.39
2023-04-24T12:16:03.146Z,59.52
2023-04-24T12:17:03.108Z,59.82
2023-04-24T12:18:03.107Z,60.05
2023-04-24T12:19:05.156Z,60.36
2023-04-24T12:20:03.087Z,60.76
2023-04-24T12:21:03.013Z,60.36
2023-04-24T12:22:03.046Z,60.46
2023-04-24T12:23:03.336Z,61.07
2023-04-24T12:24:03.096Z,61.20
2023-04-24T12:25:02.958Z,61.40
2023-04-24T12:26:04.760Z,61.40
2023-04-24T12:27:02.978Z,61.51
2023-04-24T12:28:02.991Z,61.37
2023-04-24T12:29:02.944Z,61.24
2023-04-24T12:30:02.917Z,60.43
2023-04-24T12:31:03.208Z,60.10
2023-04-24T12:32:02.899Z,60.02
2023-04-24T12:33:02.987Z,60.02
2023-04-24T12:34:03.200Z,60.13
2023-04-24T12:35:02.861Z,60.22
2023-04-24T12:36:03.134Z,60.25
2023-04-24T12:37:02.845Z,60.36
2023-04-24T12:38:02.846Z,60.86
2023-04-24T12:39:02.823Z,60.46
2023-04-24T12:40:03.104Z,60.56
2023-04-24T12:41:03.325Z,60.15
2023-04-24T12:42:02.795Z,59.95
2023-04-24T12:43:02.779Z,59.95
2023-04-24T12:44:02.777Z,59.92
2023-04-24T12:45:02.794Z,59.69
2023-04-24T12:46:02.751Z,58.75
2023-04-24T12:47:03.400Z,59.05
2023-04-24T12:48:02.772Z,59.05
2023-04-24T12:49:02.701Z,58.75
2023-04-24T12:50:02.705Z,59.36
2023-04-24T12:51:02.736Z,59.59
2023-04-24T12:52:03.471Z,59.79